Hollywood, Alabama
Current Conditions -  °F | °C
As of 4:55 PM on Friday 31 Oct 2014 (Local Time) from K4A6 Reporting Station
Light Rain Light Rain  
Wind Chill: 46°   Ceiling: 4600
Heat Index: 48°   Visibility: 4mi
Dew Point: 45°   Wind: 5mph
Humidity: 87%   Direction: 350°N
Pressure: 30"   Gusts: NA
Location:  34.72°N, 85.97°W
Report Text: K4A6 312155Z AUTO 35004KT 4SM -RA FEW029 SCT037 BKN046 09/07 A3000 RMK AO2
Loading
Personal Weather Stations






























Interactive Weather Map
Tropical Storm Tracking
New forecast layout! Learn more

10-Day Weather Forecast

Advertisements
Track Severe Weather on mobile